Time;durP1;ratioP1;P1;durP2;ratioP2;P2;SDS_P1;SDS_P2;PMS_P1;PMS_P2;Temp;Humidity;BMP_temperature;BMP_pressure;BME280_temperature;BME280_humidity;BME280_pressure;Samples;Min_cycle;Max_cycle;Signal;HPM_P1;HPM_P2
2022/08/14 00:01:49;;;;;;;12.70;8.73;;;26.30;99.90;;;;;;5032797;28;20029;-77
2022/08/14 00:04:15;;;;;;;10.77;8.38;;;26.30;99.90;;;;;;5032429;28;20037;-78
2022/08/14 00:06:41;;;;;;;14.00;8.40;;;26.30;99.90;;;;;;5033100;28;20024;-77
2022/08/14 00:09:06;;;;;;;11.25;9.40;;;26.30;99.90;;;;;;5032722;28;20124;-77
2022/08/14 00:11:32;;;;;;;11.10;8.57;;;26.20;99.90;;;;;;5031863;28;20060;-78
2022/08/14 00:14:00;;;;;;;13.82;8.48;;;26.30;99.90;;;;;;5032725;28;20026;-78
2022/08/14 00:16:25;;;;;;;12.48;9.13;;;26.30;99.90;;;;;;5032508;28;20067;-78
2022/08/14 00:18:51;;;;;;;9.95;8.75;;;26.20;99.90;;;;;;5032469;28;20037;-78
2022/08/14 00:21:17;;;;;;;11.10;8.95;;;26.10;99.90;;;;;;5032503;28;20025;-78
2022/08/14 00:23:42;;;;;;;10.32;9.05;;;26.10;99.90;;;;;;5032444;28;20037;-77
2022/08/14 00:26:08;;;;;;;9.52;8.30;;;26.30;99.90;;;;;;5032317;28;20033;-78
2022/08/14 00:28:34;;;;;;;10.55;8.73;;;26.30;99.90;;;;;;5032357;28;20094;-77
2022/08/14 00:31:00;;;;;;;9.73;8.57;;;26.10;99.90;;;;;;5032297;28;20017;-78
2022/08/14 00:33:27;;;;;;;11.30;8.50;;;26.00;99.90;;;;;;5032073;28;20032;-77
2022/08/14 00:35:53;;;;;;;12.05;9.32;;;26.10;1.00;;;;;;5032753;28;20471;-78
2022/08/14 00:38:20;;;;;;;12.60;9.18;;;26.00;99.90;;;;;;5032502;28;20057;-77
2022/08/14 00:40:46;;;;;;;10.68;9.65;;;26.10;99.90;;;;;;5032235;28;20035;-77
2022/08/14 00:43:12;;;;;;;9.57;8.60;;;26.00;1.00;;;;;;5032258;28;20041;-78
2022/08/14 00:45:38;;;;;;;13.27;9.27;;;26.00;1.00;;;;;;5031747;28;20419;-77
2022/08/14 00:48:04;;;;;;;14.48;9.63;;;26.00;1.00;;;;;;5032343;28;20112;-77
2022/08/14 00:50:30;;;;;;;10.73;9.00;;;25.90;1.00;;;;;;5032532;28;20032;-78
2022/08/14 00:52:58;;;;;;;12.35;9.00;;;25.80;1.00;;;;;;5032133;28;20026;-78
2022/08/14 00:55:29;;;;;;;11.90;9.45;;;25.90;1.00;;;;;;5031705;28;20032;-78
2022/08/14 01:00:42;;;;;;;10.60;9.52;;;25.70;1.00;;;;;;5031836;28;20080;-78
2022/08/14 01:03:08;;;;;;;10.82;9.85;;;25.80;1.00;;;;;;5031874;28;20383;-77
2022/08/14 01:05:34;;;;;;;12.27;9.57;;;25.80;1.00;;;;;;5031965;28;20076;-78
2022/08/14 01:08:00;;;;;;;12.60;9.75;;;25.80;1.00;;;;;;5032484;28;20038;-77
2022/08/14 01:10:49;;;;;;;14.68;9.73;;;25.70;1.00;;;;;;5032014;28;20022;-77
2022/08/14 01:13:16;;;;;;;10.65;9.55;;;25.70;1.00;;;;;;5032013;28;20544;-78
2022/08/14 01:15:47;;;;;;;10.30;9.35;;;25.80;1.00;;;;;;5031503;28;20030;-78
2022/08/14 01:21:10;;;;;;;10.75;9.65;;;25.80;1.00;;;;;;5032178;28;20080;-77
2022/08/14 01:23:39;;;;;;;13.25;10.30;;;25.80;1.00;;;;;;5033553;28;20068;-78
2022/08/14 01:26:05;;;;;;;13.30;9.80;;;25.80;1.00;;;;;;5035597;28;20076;-78
2022/08/14 01:28:36;;;;;;;10.82;9.35;;;25.90;1.00;;;;;;5035681;28;20025;-78
2022/08/14 01:31:11;;;;;;;13.18;9.70;;;25.90;1.00;;;;;;5035348;28;20095;-78
2022/08/14 01:33:40;;;;;;;10.52;9.35;;;26.00;1.00;;;;;;5035862;28;20108;-78
2022/08/14 01:36:08;;;;;;;13.35;9.73;;;25.90;1.00;;;;;;5035829;28;20068;-78
2022/08/14 01:38:34;;;;;;;11.60;9.68;;;25.80;1.00;;;;;;5035456;28;20113;-77
2022/08/14 01:41:01;;;;;;;14.52;9.80;;;25.80;1.00;;;;;;5035548;28;20029;-77
2022/08/14 01:43:29;;;;;;;11.50;10.30;;;25.70;1.00;;;;;;5035428;28;20055;-78
2022/08/14 01:45:59;;;;;;;12.60;9.77;;;25.60;1.00;;;;;;5035149;28;20478;-77
2022/08/14 01:48:29;;;;;;;11.05;9.75;;;25.60;1.00;;;;;;5035678;28;20481;-78
2022/08/14 01:50:55;;;;;;;13.88;10.10;;;25.50;1.00;;;;;;5035272;28;20109;-77
2022/08/14 01:53:21;;;;;;;11.60;10.27;;;25.50;1.00;;;;;;5035458;28;20017;-78
2022/08/14 01:55:50;;;;;;;13.40;10.40;;;25.50;1.00;;;;;;5035313;28;20041;-77
2022/08/14 01:58:16;;;;;;;11.73;10.43;;;25.50;1.00;;;;;;5034737;28;20108;-78
2022/08/14 02:00:41;;;;;;;11.88;10.68;;;25.50;1.00;;;;;;5035228;28;20464;-78
2022/08/14 02:03:07;;;;;;;13.68;11.20;;;25.50;1.00;;;;;;5034993;28;20126;-77
2022/08/14 02:05:34;;;;;;;14.00;11.32;;;25.60;1.00;;;;;;5035085;28;20029;-78
2022/08/14 02:08:00;;;;;;;12.07;10.88;;;25.50;1.00;;;;;;5035064;28;20426;-78
2022/08/14 02:10:27;;;;;;;11.65;10.45;;;25.50;1.00;;;;;;5035025;28;20030;-78
2022/08/14 02:12:55;;;;;;;13.63;11.00;;;25.50;1.00;;;;;;5034542;28;20096;-78
2022/08/14 02:15:21;;;;;;;12.02;10.93;;;25.50;1.00;;;;;;5034966;28;20116;-78
2022/08/14 02:17:49;;;;;;;12.13;11.00;;;25.30;1.00;;;;;;5035032;28;20120;-78
2022/08/14 02:20:16;;;;;;;15.57;11.13;;;25.20;1.00;;;;;;5034813;28;20021;-77
2022/08/14 02:22:42;;;;;;;13.43;11.30;;;25.30;1.00;;;;;;5034593;28;20490;-78
2022/08/14 02:25:09;;;;;;;14.70;11.50;;;25.30;1.00;;;;;;5034734;28;20036;-77
2022/08/14 02:27:36;;;;;;;12.13;10.95;;;25.40;1.00;;;;;;5034045;28;20076;-78
2022/08/14 02:30:04;;;;;;;13.68;10.57;;;25.40;1.00;;;;;;5034779;28;20033;-78
2022/08/14 02:32:32;;;;;;;14.52;11.45;;;25.30;1.00;;;;;;5034699;28;20034;-78
2022/08/14 02:34:59;;;;;;;11.88;10.85;;;25.10;1.00;;;;;;5033677;28;20474;-78
2022/08/14 02:37:25;;;;;;;12.48;11.07;;;25.20;1.00;;;;;;5034481;28;20029;-78
2022/08/14 02:39:50;;;;;;;12.73;11.40;;;25.30;1.00;;;;;;5034454;28;20079;-78
2022/08/14 02:42:20;;;;;;;12.10;10.90;;;25.40;1.00;;;;;;5033838;28;20033;-77
2022/08/14 02:44:47;;;;;;;13.25;11.73;;;25.40;1.00;;;;;;5034664;28;20406;-77
2022/08/14 02:47:13;;;;;;;12.30;11.07;;;25.50;1.00;;;;;;5034472;28;20030;-78
2022/08/14 02:49:39;;;;;;;13.18;11.80;;;25.40;1.00;;;;;;5034231;28;20398;-78
2022/08/14 02:52:06;;;;;;;12.00;10.75;;;25.50;1.00;;;;;;5034592;28;20049;-78
2022/08/14 02:54:33;;;;;;;13.02;11.68;;;25.50;1.00;;;;;;5034216;28;20022;-78
2022/08/14 02:56:59;;;;;;;13.73;11.75;;;25.50;1.00;;;;;;5033698;28;20037;-78
2022/08/14 02:59:28;;;;;;;13.82;11.75;;;25.40;1.00;;;;;;5034099;28;20458;-77
2022/08/14 03:01:56;;;;;;;13.02;11.27;;;25.40;1.00;;;;;;5033924;28;20366;-78
2022/08/14 03:04:22;;;;;;;12.40;11.07;;;25.30;1.00;;;;;;5034035;28;20042;-78
2022/08/14 03:06:49;;;;;;;12.57;11.07;;;25.50;1.00;;;;;;5034269;28;20025;-78
2022/08/14 03:09:15;;;;;;;12.25;11.15;;;25.60;1.00;;;;;;5033895;28;20029;-78
2022/08/14 03:11:43;;;;;;;12.32;11.05;;;25.60;1.00;;;;;;5033484;28;20117;-78
2022/08/14 03:14:10;;;;;;;13.32;11.25;;;25.50;1.00;;;;;;5033718;28;20032;-78
2022/08/14 03:16:37;;;;;;;13.73;12.10;;;25.50;1.00;;;;;;5034089;28;20080;-78
2022/08/14 03:19:06;;;;;;;13.38;11.95;;;25.50;1.00;;;;;;5033395;28;20060;-78
2022/08/14 03:21:32;;;;;;;11.95;10.73;;;25.60;1.00;;;;;;5033835;28;20060;-78
2022/08/14 03:26:33;;;;;;;13.20;11.73;;;25.60;1.00;;;;;;5033023;28;20042;-78
2022/08/14 03:29:00;;;;;;;13.25;11.68;;;25.60;1.00;;;;;;5033489;28;20036;-77
2022/08/14 03:31:25;;;;;;;12.77;11.52;;;25.50;1.00;;;;;;5033684;28;20028;-78
2022/08/14 03:33:51;;;;;;;13.35;11.95;;;25.50;1.00;;;;;;5033636;28;20021;-79
2022/08/14 03:36:20;;;;;;;14.10;11.68;;;25.40;1.00;;;;;;5031800;28;20385;-78
2022/08/14 03:38:52;;;;;;;13.10;11.77;;;25.30;1.00;;;;;;5033202;28;20040;-78
2022/08/14 03:41:24;;;;;;;13.55;12.05;;;25.30;1.00;;;;;;5033057;28;20029;-78
2022/08/14 03:43:54;;;;;;;13.80;11.80;;;25.30;1.00;;;;;;5033129;28;20091;-78
2022/08/14 03:46:20;;;;;;;12.57;11.25;;;25.20;1.00;;;;;;5033280;28;20029;-78
2022/08/14 03:48:47;;;;;;;13.88;11.82;;;25.20;1.00;;;;;;5033282;28;20486;-78
2022/08/14 03:51:13;;;;;;;12.82;11.73;;;25.20;1.00;;;;;;5032952;28;20052;-78
2022/08/14 03:53:41;;;;;;;12.65;11.45;;;25.20;1.00;;;;;;5033241;28;20025;-78
2022/08/14 03:56:13;;;;;;;14.23;12.20;;;25.10;1.00;;;;;;5032721;28;20087;-78
2022/08/14 03:58:44;;;;;;;14.40;12.10;;;25.20;1.00;;;;;;5033034;28;20036;-78
2022/08/14 04:01:14;;;;;;;15.30;11.73;;;25.20;1.00;;;;;;5032979;28;20061;-78
2022/08/14 04:03:39;;;;;;;13.15;11.75;;;25.20;1.00;;;;;;5032797;28;20099;-78
2022/08/14 04:06:10;;;;;;;13.75;11.98;;;25.10;1.00;;;;;;5032783;28;20026;-78
2022/08/14 04:08:37;;;;;;;13.45;11.88;;;25.00;1.00;;;;;;5032959;28;20021;-79
2022/08/14 04:11:03;;;;;;;15.02;12.05;;;25.10;1.00;;;;;;5032824;28;20037;-78
2022/08/14 04:13:31;;;;;;;14.20;12.90;;;25.20;1.00;;;;;;5032801;28;20075;-78
2022/08/14 04:15:58;;;;;;;13.60;12.20;;;24.90;1.00;;;;;;5032632;28;20499;-78
2022/08/14 04:18:24;;;;;;;13.43;12.05;;;24.80;1.00;;;;;;5031796;28;20394;-78
2022/08/14 04:20:50;;;;;;;13.32;11.95;;;24.60;1.00;;;;;;5032642;28;20082;-78
2022/08/14 04:23:16;;;;;;;14.57;12.35;;;24.60;1.00;;;;;;5031275;28;20482;-79
2022/08/14 04:25:42;;;;;;;13.98;12.55;;;24.60;1.00;;;;;;5032510;28;20112;-78
2022/08/14 04:28:10;;;;;;;13.90;12.40;;;24.60;1.00;;;;;;5032544;28;20048;-78
2022/08/14 04:30:39;;;;;;;14.13;12.50;;;24.60;1.00;;;;;;5032438;28;20104;-78
2022/08/14 04:33:07;;;;;;;13.77;12.40;;;24.50;1.00;;;;;;5032408;28;20402;-78
2022/08/14 04:35:34;;;;;;;14.10;12.70;;;24.50;1.00;;;;;;5032335;28;20028;-78
2022/08/14 04:43:36;;;;;;;16.42;13.52;;;24.80;1.00;;;;;;5032213;28;20055;-78
2022/08/14 04:46:22;;;;;;;14.15;12.85;;;24.70;1.00;;;;;;5032519;28;20104;-78
2022/08/14 04:48:49;;;;;;;15.27;13.73;;;24.80;1.00;;;;;;5031276;28;20072;-78
2022/08/14 04:51:19;;;;;;;14.40;12.95;;;24.80;1.00;;;;;;5032098;28;20030;-78
2022/08/14 04:53:47;;;;;;;15.35;13.25;;;24.90;1.00;;;;;;5031880;28;20026;-78
2022/08/14 04:56:16;;;;;;;14.70;13.23;;;24.90;1.00;;;;;;5032020;28;20026;-78
2022/08/14 04:58:42;;;;;;;15.32;13.93;;;24.90;1.00;;;;;;5031928;28;20032;-78
2022/08/14 05:01:09;;;;;;;14.88;13.50;;;24.90;1.00;;;;;;5032155;28;20029;-78
2022/08/14 05:03:37;;;;;;;14.98;13.20;;;25.10;1.00;;;;;;5031982;28;20481;-78
2022/08/14 05:06:08;;;;;;;16.10;14.02;;;25.20;1.00;;;;;;5032320;28;20018;-78
2022/08/14 05:08:34;;;;;;;14.95;13.45;;;25.30;1.00;;;;;;5031774;28;20034;-78
2022/08/14 05:11:02;;;;;;;16.30;13.80;;;25.10;1.00;;;;;;5032002;28;20386;-78
2022/08/14 05:13:29;;;;;;;14.95;13.38;;;25.00;1.00;;;;;;5031967;28;20032;-78
2022/08/14 05:15:57;;;;;;;13.50;11.50;;;25.00;1.00;;;;;;5032003;28;20030;-78
2022/08/14 05:18:26;;;;;;;14.27;12.88;;;25.10;1.00;;;;;;5031768;28;20494;-78
2022/08/14 05:20:55;;;;;;;14.38;12.70;;;25.10;1.00;;;;;;5032170;28;20100;-78
2022/08/14 05:23:27;;;;;;;12.95;11.75;;;25.10;1.00;;;;;;5031600;28;20060;-78
2022/08/14 05:25:58;;;;;;;12.82;11.52;;;25.10;1.00;;;;;;5031792;28;20029;-78
2022/08/14 05:28:26;;;;;;;12.43;11.15;;;25.10;1.00;;;;;;5031795;28;20159;-78
2022/08/14 05:30:54;;;;;;;11.48;10.38;;;25.30;1.00;;;;;;5031701;28;20029;-79
2022/08/14 05:33:23;;;;;;;11.05;9.90;;;25.10;1.00;;;;;;5031767;28;20014;-78
2022/08/14 05:35:50;;;;;;;15.52;9.98;;;24.40;1.00;;;;;;5030424;28;20025;-78
2022/08/14 05:38:18;;;;;;;14.23;9.90;;;24.40;1.00;;;;;;5031102;28;20059;-80
2022/08/14 05:40:45;;;;;;;13.60;11.50;;;24.10;1.00;;;;;;5031593;28;20025;-81
2022/08/14 05:43:12;;;;;;;11.80;9.55;;;22.70;99.90;;;;;;5031528;28;20601;-81
2022/08/14 05:45:37;;;;;;;17.25;8.10;;;21.00;99.90;;;;;;5031919;28;20038;-83
2022/08/14 05:48:04;;;;;;;13.88;7.20;;;23.00;99.90;;;;;;5031545;28;20029;-83
2022/08/14 05:50:31;;;;;;;11.93;7.22;;;22.10;99.90;;;;;;5031124;28;20033;-83
2022/08/14 05:52:57;;;;;;;18.25;6.85;;;21.90;99.90;;;;;;5031443;28;20478;-82
2022/08/14 05:55:23;;;;;;;21.15;9.07;;;20.80;99.90;;;;;;5031599;28;20490;-81
2022/08/14 05:57:53;;;;;;;21.08;9.13;;;21.00;99.90;;;;;;5031981;28;20037;-79
2022/08/14 06:00:24;;;;;;;18.30;9.55;;;20.70;99.90;;;;;;5031314;28;20108;-79
2022/08/14 06:02:50;;;;;;;14.60;9.75;;;20.90;99.90;;;;;;5031298;28;20037;-80
2022/08/14 06:05:15;;;;;;;18.17;10.70;;;21.20;99.90;;;;;;5030940;28;20355;-79
2022/08/14 06:07:41;;;;;;;16.42;10.25;;;21.30;99.90;;;;;;5024396;28;20068;-80
2022/08/14 06:10:09;;;;;;;15.38;10.30;;;21.60;99.90;;;;;;5025512;28;20566;-79
2022/08/14 06:12:36;;;;;;;17.40;10.90;;;21.60;99.90;;;;;;5033610;28;20026;-83
2022/08/14 06:15:02;;;;;;;17.33;10.60;;;21.60;99.90;;;;;;5034690;28;20037;-81
2022/08/14 06:17:28;;;;;;;18.10;10.73;;;21.70;99.90;;;;;;5032259;28;20544;-80
2022/08/14 06:19:54;;;;;;;20.05;11.73;;;21.90;99.90;;;;;;5032548;28;20029;-80
2022/08/14 06:22:19;;;;;;;18.92;11.43;;;22.10;99.90;;;;;;5034759;28;20076;-80
2022/08/14 06:24:45;;;;;;;16.85;11.25;;;22.00;99.90;;;;;;5034356;28;20030;-80
2022/08/14 06:27:10;;;;;;;17.67;12.02;;;22.20;99.90;;;;;;5034429;28;20461;-80
2022/08/14 06:29:37;;;;;;;17.50;12.05;;;22.10;99.90;;;;;;5033936;28;20057;-80
2022/08/14 06:32:04;;;;;;;16.25;12.05;;;22.50;99.90;;;;;;5033070;28;20029;-80
2022/08/14 06:34:30;;;;;;;16.80;12.23;;;22.20;99.90;;;;;;5033926;28;20398;-80
2022/08/14 06:36:55;;;;;;;18.33;13.52;;;22.20;99.90;;;;;;5034774;28;20024;-80
2022/08/14 06:39:22;;;;;;;18.40;12.20;;;22.00;99.90;;;;;;5034267;28;20375;-81
2022/08/14 06:41:48;;;;;;;20.35;13.40;;;22.30;99.90;;;;;;5032972;28;20501;-81
2022/08/14 06:44:13;;;;;;;17.75;13.27;;;22.50;99.90;;;;;;5033817;28;20065;-82
2022/08/14 06:46:39;;;;;;;22.48;14.20;;;22.70;99.90;;;;;;5032922;28;20029;-80
2022/08/14 06:49:05;;;;;;;21.20;14.50;;;22.80;99.90;;;;;;5030962;28;20101;-81
2022/08/14 06:51:30;;;;;;;18.75;12.30;;;22.80;99.90;;;;;;5034114;28;20021;-81
2022/08/14 06:53:56;;;;;;;18.92;13.90;;;22.50;99.90;;;;;;5022595;28;20466;-80
2022/08/14 06:56:22;;;;;;;20.52;14.32;;;22.50;99.90;;;;;;5014986;28;20402;-81
2022/08/14 06:58:48;;;;;;;19.08;14.02;;;22.60;99.90;;;;;;5014320;28;20087;-81
2022/08/14 07:06:42;;;;;;;19.92;14.10;;;22.20;99.90;;;;;;5033285;28;20457;-82
2022/08/14 07:09:10;;;;;;;20.33;14.70;;;22.10;99.90;;;;;;5033229;28;20025;-81
2022/08/14 07:11:37;;;;;;;17.20;13.95;;;22.40;99.90;;;;;;5033286;28;20033;-81
2022/08/14 07:14:03;;;;;;;21.48;15.00;;;22.40;99.90;;;;;;5032270;28;20021;-81
2022/08/14 07:16:29;;;;;;;21.05;15.75;;;22.40;99.90;;;;;;5033464;28;20096;-81
2022/08/14 07:18:55;;;;;;;27.85;16.23;;;22.50;99.90;;;;;;5019544;28;20037;-81
2022/08/14 07:21:21;;;;;;;23.88;16.27;;;22.60;99.90;;;;;;5021000;28;20095;-82
2022/08/14 07:23:46;;;;;;;22.75;15.52;;;22.70;99.90;;;;;;5033482;28;20500;-82
2022/08/14 07:26:12;;;;;;;20.02;15.77;;;22.80;99.90;;;;;;5033008;28;20415;-83
2022/08/14 07:28:39;;;;;;;18.90;14.93;;;22.80;99.90;;;;;;5033466;28;20025;-82
2022/08/14 07:31:08;;;;;;;24.77;17.50;;;22.60;99.90;;;;;;5033159;28;20049;-81
2022/08/14 07:33:39;;;;;;;25.95;15.98;;;22.00;99.90;;;;;;5033356;28;20121;-85
2022/08/14 07:36:08;;;;;;;24.38;15.63;;;21.70;99.90;;;;;;5033709;28;20049;-81
2022/08/14 07:38:34;;;;;;;24.13;16.17;;;22.70;99.90;;;;;;5032667;28;20096;-82
2022/08/14 07:41:00;;;;;;;25.00;16.83;;;22.20;99.90;;;;;;5032492;28;20037;-84
2022/08/14 07:43:26;;;;;;;21.45;14.00;;;22.40;99.90;;;;;;5033133;28;20091;-83
2022/08/14 07:45:52;;;;;;;21.70;15.00;;;22.60;99.90;;;;;;5024717;28;20478;-83
2022/08/14 07:48:18;;;;;;;18.80;13.88;;;22.80;99.90;;;;;;5013437;28;20068;-78
2022/08/14 07:50:45;;;;;;;15.98;12.50;;;22.70;99.90;;;;;;5029107;28;20033;-85
2022/08/14 07:53:15;;;;;;;22.25;13.07;;;22.50;99.90;;;;;;5032390;28;20057;-89
2022/08/14 07:55:41;;;;;;;17.00;13.70;;;22.70;99.90;;;;;;5033112;28;20552;-87
2022/08/14 07:58:08;;;;;;;15.15;12.93;;;23.10;99.90;;;;;;5033131;28;20026;-88
2022/08/14 08:00:34;;;;;;;20.58;10.77;;;23.20;99.90;;;;;;5033132;28;20640;-81
2022/08/14 08:02:59;;;;;;;14.10;11.55;;;23.20;99.90;;;;;;5031455;28;20044;-89
2022/08/14 08:05:26;;;;;;;12.18;10.18;;;22.70;99.90;;;;;;5031653;28;20486;-89
2022/08/14 08:07:53;;;;;;;13.48;10.82;;;22.50;99.90;;;;;;5032057;28;20033;-88
2022/08/14 08:10:30;;;;;;;11.50;9.93;;;22.70;99.90;;;;;;5032486;28;20037;-89
2022/08/14 08:13:01;;;;;;;10.88;9.77;;;22.70;99.90;;;;;;5032381;28;20044;-90
2022/08/14 08:15:32;;;;;;;14.80;9.63;;;22.70;99.90;;;;;;5032000;28;20033;-90
2022/08/14 08:18:03;;;;;;;12.73;9.45;;;22.60;99.90;;;;;;5032363;28;20100;-90
2022/08/14 08:20:35;;;;;;;16.48;10.15;;;22.20;99.90;;;;;;5027544;28;20044;-89
2022/08/14 08:23:01;;;;;;;11.50;9.93;;;22.50;99.90;;;;;;5027404;28;20414;-89
2022/08/14 08:25:30;;;;;;;16.13;10.02;;;22.70;99.90;;;;;;5032184;28;20021;-89
2022/08/14 08:28:00;;;;;;;12.55;9.80;;;22.80;99.90;;;;;;5032510;28;20060;-88
2022/08/14 08:30:27;;;;;;;9.75;8.52;;;22.90;99.90;;;;;;5031201;28;20470;-88
2022/08/14 08:32:55;;;;;;;11.18;9.18;;;22.60;99.90;;;;;;5030950;28;20379;-88
2022/08/14 08:35:26;;;;;;;9.75;8.35;;;22.80;99.90;;;;;;5022478;28;20041;-88
2022/08/14 08:37:53;;;;;;;13.73;9.10;;;22.70;99.90;;;;;;5032224;28;20037;-87
2022/08/14 08:40:28;;;;;;;10.13;8.02;;;22.90;99.90;;;;;;5032018;28;20032;-88
2022/08/14 08:42:53;;;;;;;11.82;8.95;;;22.90;99.90;;;;;;5031558;28;20501;-89
2022/08/14 08:45:20;;;;;;;12.80;8.35;;;22.60;99.90;;;;;;5031803;28;20030;-89
2022/08/14 08:47:46;;;;;;;8.73;7.50;;;22.30;99.90;;;;;;5031858;28;20494;-89
2022/08/14 08:50:18;;;;;;;7.30;6.55;;;22.00;99.90;;;;;;5031656;28;20466;-89
2022/08/14 08:52:49;;;;;;;8.15;6.85;;;21.90;99.90;;;;;;5031764;28;20390;-89
2022/08/14 08:55:16;;;;;;;9.18;7.53;;;22.00;99.90;;;;;;5031936;28;20069;-88
2022/08/14 08:57:42;;;;;;;10.20;7.20;;;22.20;99.90;;;;;;5030709;28;20529;-88
2022/08/14 09:00:17;;;;;;;8.80;7.90;;;22.30;99.90;;;;;;5031506;28;20064;-88
2022/08/14 09:02:58;;;;;;;9.40;7.50;;;22.30;99.90;;;;;;5031713;28;20029;-89
2022/08/14 09:05:25;;;;;;;8.73;7.60;;;22.40;99.90;;;;;;5031612;28;20036;-89
2022/08/14 09:07:51;;;;;;;11.15;8.10;;;22.40;99.90;;;;;;5030723;28;20034;-89
2022/08/14 09:10:16;;;;;;;10.60;8.15;;;22.50;99.90;;;;;;5031954;28;20068;-88
2022/08/14 09:12:42;;;;;;;8.48;6.70;;;22.50;99.90;;;;;;5031759;28;20092;-88
2022/08/14 09:15:08;;;;;;;8.07;6.15;;;22.50;99.90;;;;;;5029012;28;20061;-90
2022/08/14 09:17:35;;;;;;;11.40;6.13;;;22.60;99.90;;;;;;5014120;28;20037;-88
2022/08/14 09:20:03;;;;;;;7.47;5.22;;;22.60;99.90;;;;;;5031256;28;20030;-89
2022/08/14 09:22:30;;;;;;;5.82;3.92;;;22.40;99.90;;;;;;5031761;28;20025;-89
2022/08/14 09:24:56;;;;;;;5.13;3.70;;;22.30;99.90;;;;;;5031385;28;20070;-90
2022/08/14 09:27:22;;;;;;;3.90;3.50;;;22.20;99.90;;;;;;5031603;28;20391;-89
2022/08/14 09:29:47;;;;;;;3.78;3.22;;;22.20;99.90;;;;;;5031602;28;20071;-88
2022/08/14 09:32:26;;;;;;;7.10;3.33;;;22.20;99.90;;;;;;5031768;28;20057;-88
2022/08/14 09:35:30;;;;;;;2.80;2.60;;;22.50;99.90;;;;;;5031350;28;20071;-88
2022/08/14 09:38:15;;;;;;;2.97;2.70;;;22.40;99.90;;;;;;4951441;29;20047;-88
2022/08/14 09:41:05;;;;;;;2.70;2.47;;;22.30;99.90;;;;;;4950918;29;20043;-88
2022/08/14 09:43:44;;;;;;;4.25;3.08;;;22.20;99.90;;;;;;4951039;28;20492;-89
2022/08/14 09:46:09;;;;;;;4.03;3.20;;;22.50;99.90;;;;;;4937508;29;20139;-88
2022/08/14 09:48:36;;;;;;;4.18;3.42;;;22.60;99.90;;;;;;4940673;29;20040;-88
2022/08/14 09:51:02;;;;;;;3.38;3.03;;;22.40;99.90;;;;;;4954994;29;20031;-89
2022/08/14 09:53:44;;;;;;;6.68;3.63;;;22.40;99.90;;;;;;4954628;29;20051;-89
2022/08/14 09:56:10;;;;;;;4.30;3.47;;;22.90;99.90;;;;;;4946234;29;20107;-89
2022/08/14 09:58:44;;;;;;;4.20;3.30;;;23.00;99.90;;;;;;4935511;29;20075;-89
2022/08/14 10:01:16;;;;;;;4.97;3.83;;;22.90;99.90;;;;;;4944054;29;20043;-88
2022/08/14 10:03:51;;;;;;;4.47;3.30;;;22.70;99.90;;;;;;4939051;29;20047;-89
2022/08/14 10:06:22;;;;;;;5.47;3.42;;;22.90;99.90;;;;;;4935536;29;20039;-89
2022/08/14 10:08:53;;;;;;;4.18;3.53;;;22.80;99.90;;;;;;4951330;29;20035;-89
2022/08/14 10:11:28;;;;;;;4.20;3.80;;;22.70;99.90;;;;;;4954341;29;20477;-89
2022/08/14 10:14:09;;;;;;;4.07;3.47;;;23.30;99.90;;;;;;5003881;28;20038;-89
2022/08/14 10:16:42;;;;;;;4.50;3.53;;;23.40;99.90;;;;;;5017269;28;20025;-90
2022/08/14 10:19:10;;;;;;;6.18;3.72;;;23.50;99.90;;;;;;5020339;28;20403;-89
2022/08/14 10:21:42;;;;;;;4.28;2.97;;;23.80;99.90;;;;;;5024020;28;20018;-89
2022/08/14 10:24:22;;;;;;;3.03;2.72;;;23.70;99.90;;;;;;5034750;28;20125;-88
2022/08/14 10:26:56;;;;;;;5.18;3.00;;;23.90;99.90;;;;;;5033754;28;20033;-87
2022/08/14 10:29:32;;;;;;;3.72;2.65;;;24.00;99.90;;;;;;5034385;28;20118;-89
2022/08/14 10:31:58;;;;;;;2.72;2.50;;;24.20;99.90;;;;;;5034359;28;20029;-95
2022/08/14 10:34:30;;;;;;;3.53;2.53;;;24.40;99.90;;;;;;5036323;28;20539;-96
2022/08/14 10:37:06;;;;;;;2.78;2.45;;;24.20;99.90;;;;;;5039068;28;20033;-96
2022/08/14 10:39:34;;;;;;;2.70;2.50;;;24.20;99.90;;;;;;5039945;28;20076;-95
2022/08/14 10:42:05;;;;;;;4.00;2.42;;;24.20;99.90;;;;;;5034761;28;20029;-90
2022/08/14 10:44:39;;;;;;;3.92;2.40;;;24.20;99.90;;;;;;5015447;28;20033;-91
2022/08/14 10:47:09;;;;;;;2.47;2.28;;;23.90;99.90;;;;;;5015457;28;20389;-93
2022/08/14 10:49:36;;;;;;;4.78;2.60;;;24.10;99.90;;;;;;5014841;28;20033;-92
2022/08/14 10:52:19;;;;;;;3.42;2.92;;;23.70;99.90;;;;;;5029161;28;20036;-93
2022/08/14 10:54:47;;;;;;;3.50;2.90;;;23.40;99.90;;;;;;5033988;28;20032;-92
2022/08/14 10:57:23;;;;;;;4.45;3.40;;;23.40;99.90;;;;;;5030201;28;20033;-86
2022/08/14 11:00:12;;;;;;;4.38;3.00;;;23.40;99.90;;;;;;5034644;28;20021;-96
2022/08/14 11:02:38;;;;;;;4.65;3.10;;;23.60;99.90;;;;;;5034578;28;20065;-93
2022/08/14 11:05:07;;;;;;;3.80;3.50;;;23.60;99.90;;;;;;5035745;28;20033;-96
2022/08/14 11:07:38;;;;;;;4.28;3.88;;;23.60;99.90;;;;;;5035207;28;20457;-86
2022/08/14 11:10:08;;;;;;;4.88;4.45;;;23.30;99.90;;;;;;5033052;28;20033;-87
2022/08/14 11:12:39;;;;;;;5.03;4.43;;;23.40;99.90;;;;;;5033655;28;20075;-88
2022/08/14 11:15:06;;;;;;;5.13;4.60;;;23.60;99.90;;;;;;5033361;28;20096;-87
2022/08/14 11:17:34;;;;;;;4.75;4.25;;;23.60;99.90;;;;;;5033330;28;20037;-87
2022/08/14 11:20:03;;;;;;;6.25;5.03;;;23.60;99.90;;;;;;5033883;28;20033;-89
2022/08/14 11:22:30;;;;;;;5.03;4.07;;;23.40;99.90;;;;;;5034246;28;20485;-87
2022/08/14 11:25:05;;;;;;;5.63;3.50;;;23.20;99.90;;;;;;5033294;28;20084;-88
2022/08/14 11:27:32;;;;;;;4.82;3.40;;;23.30;99.90;;;;;;5033467;28;20116;-88
2022/08/14 11:30:05;;;;;;;4.75;3.38;;;23.10;99.90;;;;;;5033798;28;20021;-90
2022/08/14 11:32:32;;;;;;;4.75;3.65;;;22.80;99.90;;;;;;5035355;28;20045;-93
2022/08/14 11:35:02;;;;;;;6.43;3.42;;;22.80;99.90;;;;;;5033963;28;20068;-91
2022/08/14 11:37:28;;;;;;;3.10;2.80;;;22.50;99.90;;;;;;5032210;28;20033;-92
2022/08/14 11:39:55;;;;;;;3.22;2.60;;;22.80;99.90;;;;;;5034225;28;20087;-91
2022/08/14 11:42:23;;;;;;;4.25;2.75;;;22.80;99.90;;;;;;5032880;28;20396;-89
2022/08/14 11:44:51;;;;;;;3.47;2.72;;;22.80;99.90;;;;;;5032928;28;20033;-89
2022/08/14 11:47:20;;;;;;;4.43;2.95;;;22.90;99.90;;;;;;5031824;28;20025;-89
2022/08/14 11:49:47;;;;;;;3.00;2.80;;;23.10;99.90;;;;;;5033176;28;20455;-89
2022/08/14 11:52:19;;;;;;;3.03;2.78;;;23.40;99.90;;;;;;5032224;28;20401;-88
2022/08/14 11:54:56;;;;;;;3.20;2.60;;;23.70;99.90;;;;;;5032154;28;20029;-88
2022/08/14 11:57:21;;;;;;;4.28;2.58;;;24.60;99.90;;;;;;5033039;28;20025;-88
2022/08/14 11:59:47;;;;;;;2.58;2.38;;;24.50;99.90;;;;;;5031236;28;20079;-88
2022/08/14 12:02:15;;;;;;;2.97;2.63;;;24.00;99.90;;;;;;5032755;28;20120;-88
2022/08/14 12:04:51;;;;;;;3.10;2.80;;;24.40;99.90;;;;;;5033028;28;20032;-88
2022/08/14 12:07:17;;;;;;;4.18;2.20;;;23.80;99.90;;;;;;5032647;28;20036;-88
2022/08/14 12:09:45;;;;;;;2.95;2.45;;;23.80;99.90;;;;;;5033029;28;20025;-88
2022/08/14 12:12:20;;;;;;;4.78;2.78;;;24.70;99.90;;;;;;5032849;28;20036;-88
2022/08/14 12:14:52;;;;;;;3.28;2.50;;;25.80;99.90;;;;;;5032787;28;20029;-88
2022/08/14 12:17:18;;;;;;;2.75;2.20;;;26.30;99.90;;;;;;5032781;28;20449;-87
2022/08/14 12:19:48;;;;;;;2.60;2.40;;;26.90;99.90;;;;;;5031838;28;20029;-87
2022/08/14 12:22:13;;;;;;;2.63;2.42;;;26.20;99.90;;;;;;5032380;28;20112;-87
2022/08/14 12:24:43;;;;;;;3.67;2.42;;;26.10;99.90;;;;;;5032717;28;20498;-87
2022/08/14 12:27:09;;;;;;;2.33;2.13;;;25.60;99.90;;;;;;5032272;28;20578;-87
2022/08/14 12:29:34;;;;;;;4.03;2.30;;;27.10;99.90;;;;;;5032195;28;20045;-87
2022/08/14 12:32:05;;;;;;;2.55;2.35;;;28.20;99.90;;;;;;5032738;28;20025;-87
2022/08/14 12:34:33;;;;;;;3.95;2.25;;;28.40;99.90;;;;;;5032339;28;20036;-87
2022/08/14 12:37:07;;;;;;;2.38;2.20;;;28.60;99.90;;;;;;5032199;28;20478;-87
2022/08/14 12:39:34;;;;;;;2.67;2.20;;;31.20;1.00;;;;;;5032660;28;20065;-87
2022/08/14 12:42:05;;;;;;;3.30;2.10;;;31.20;99.90;;;;;;5032863;28;20543;-87
2022/08/14 12:44:42;;;;;;;2.60;2.40;;;31.60;99.90;;;;;;5032016;28;20052;-87
2022/08/14 12:47:11;;;;;;;2.30;2.10;;;31.30;99.90;;;;;;5032234;28;20018;-87
2022/08/14 12:49:37;;;;;;;2.35;2.15;;;33.00;99.90;;;;;;5032278;28;20494;-87
2022/08/14 12:52:06;;;;;;;2.85;2.22;;;35.80;99.90;;;;;;5031861;28;20064;-87
2022/08/14 12:54:32;;;;;;;3.40;2.40;;;36.20;99.90;;;;;;5032178;28;20033;-87
2022/08/14 12:57:05;;;;;;;2.20;2.00;;;36.70;99.90;;;;;;5032062;28;20573;-87
2022/08/14 12:59:32;;;;;;;2.20;2.10;;;38.10;99.90;;;;;;5032086;28;20037;-87
2022/08/14 13:01:58;;;;;;;2.30;2.10;;;39.00;99.90;;;;;;5031988;28;20097;-87
2022/08/14 13:04:24;;;;;;;2.60;2.08;;;37.70;99.90;;;;;;5032362;28;20502;-87
2022/08/14 13:06:51;;;;;;;3.33;2.28;;;37.40;99.90;;;;;;5031574;28;20028;-87